sensor_id;sensor_type;location;lat;lon;timestamp;P1;durP1;ratioP1;P2;durP2;ratioP2
31424;SDS011;18054;51.572;7.372;2022-08-21T00:00:18;18.17;;;4.70;;
31424;SDS011;18054;51.572;7.372;2022-08-21T00:02:46;10.95;;;4.13;;
31424;SDS011;18054;51.572;7.372;2022-08-21T00:05:15;11.82;;;4.82;;
31424;SDS011;18054;51.572;7.372;2022-08-21T00:07:42;19.65;;;4.93;;
31424;SDS011;18054;51.572;7.372;2022-08-21T00:10:12;12.10;;;4.40;;
31424;SDS011;18054;51.572;7.372;2022-08-21T00:12:40;16.23;;;4.63;;
31424;SDS011;18054;51.572;7.372;2022-08-21T00:15:09;16.42;;;5.03;;
31424;SDS011;18054;51.572;7.372;2022-08-21T00:17:37;23.50;;;5.57;;
31424;SDS011;18054;51.572;7.372;2022-08-21T00:20:05;13.15;;;4.45;;
31424;SDS011;18054;51.572;7.372;2022-08-21T00:22:34;12.40;;;4.38;;
31424;SDS011;18054;51.572;7.372;2022-08-21T00:25:02;15.75;;;5.18;;
31424;SDS011;18054;51.572;7.372;2022-08-21T00:27:31;28.80;;;5.70;;
31424;SDS011;18054;51.572;7.372;2022-08-21T00:29:58;15.18;;;5.43;;
31424;SDS011;18054;51.572;7.372;2022-08-21T00:32:26;16.83;;;5.45;;
31424;SDS011;18054;51.572;7.372;2022-08-21T00:34:54;14.50;;;5.53;;
31424;SDS011;18054;51.572;7.372;2022-08-21T00:37:23;16.10;;;5.38;;
31424;SDS011;18054;51.572;7.372;2022-08-21T00:39:50;12.93;;;4.80;;
31424;SDS011;18054;51.572;7.372;2022-08-21T00:42:19;18.20;;;5.32;;
31424;SDS011;18054;51.572;7.372;2022-08-21T00:44:48;16.40;;;5.22;;
31424;SDS011;18054;51.572;7.372;2022-08-21T00:47:16;13.15;;;5.03;;
31424;SDS011;18054;51.572;7.372;2022-08-21T00:49:44;13.63;;;5.20;;
31424;SDS011;18054;51.572;7.372;2022-08-21T00:52:13;15.02;;;5.13;;
31424;SDS011;18054;51.572;7.372;2022-08-21T00:54:41;18.25;;;5.30;;
31424;SDS011;18054;51.572;7.372;2022-08-21T00:57:13;17.90;;;4.85;;
31424;SDS011;18054;51.572;7.372;2022-08-21T00:59:42;14.30;;;4.78;;
31424;SDS011;18054;51.572;7.372;2022-08-21T01:02:12;13.07;;;4.65;;
31424;SDS011;18054;51.572;7.372;2022-08-21T01:04:40;15.15;;;5.78;;
31424;SDS011;18054;51.572;7.372;2022-08-21T01:07:08;21.23;;;5.40;;
31424;SDS011;18054;51.572;7.372;2022-08-21T01:09:35;14.43;;;6.03;;
31424;SDS011;18054;51.572;7.372;2022-08-21T01:12:03;15.82;;;5.68;;
31424;SDS011;18054;51.572;7.372;2022-08-21T01:14:31;12.07;;;5.43;;
31424;SDS011;18054;51.572;7.372;2022-08-21T01:16:59;12.27;;;4.90;;
31424;SDS011;18054;51.572;7.372;2022-08-21T01:19:30;18.30;;;5.15;;
31424;SDS011;18054;51.572;7.372;2022-08-21T01:21:59;15.00;;;5.40;;
31424;SDS011;18054;51.572;7.372;2022-08-21T01:24:26;17.85;;;5.97;;
31424;SDS011;18054;51.572;7.372;2022-08-21T01:26:54;14.55;;;5.63;;
31424;SDS011;18054;51.572;7.372;2022-08-21T01:29:30;21.70;;;6.05;;
31424;SDS011;18054;51.572;7.372;2022-08-21T01:31:59;15.25;;;5.32;;
31424;SDS011;18054;51.572;7.372;2022-08-21T01:34:30;19.70;;;6.20;;
31424;SDS011;18054;51.572;7.372;2022-08-21T01:36:59;13.77;;;5.22;;
31424;SDS011;18054;51.572;7.372;2022-08-21T01:39:27;13.30;;;4.75;;
31424;SDS011;18054;51.572;7.372;2022-08-21T01:41:54;13.13;;;5.20;;
31424;SDS011;18054;51.572;7.372;2022-08-21T01:44:22;16.27;;;5.22;;
31424;SDS011;18054;51.572;7.372;2022-08-21T01:46:50;21.63;;;5.15;;
31424;SDS011;18054;51.572;7.372;2022-08-21T01:49:18;16.48;;;5.40;;
31424;SDS011;18054;51.572;7.372;2022-08-21T01:51:45;23.10;;;6.30;;
31424;SDS011;18054;51.572;7.372;2022-08-21T01:54:14;16.23;;;5.78;;
31424;SDS011;18054;51.572;7.372;2022-08-21T01:56:42;12.88;;;5.00;;
31424;SDS011;18054;51.572;7.372;2022-08-21T01:59:10;10.68;;;5.63;;
31424;SDS011;18054;51.572;7.372;2022-08-21T02:01:38;13.20;;;5.55;;
31424;SDS011;18054;51.572;7.372;2022-08-21T02:04:06;12.82;;;5.10;;
31424;SDS011;18054;51.572;7.372;2022-08-21T02:06:34;16.00;;;5.18;;
31424;SDS011;18054;51.572;7.372;2022-08-21T02:09:02;11.13;;;5.03;;
31424;SDS011;18054;51.572;7.372;2022-08-21T02:11:31;17.90;;;6.00;;
31424;SDS011;18054;51.572;7.372;2022-08-21T02:13:58;17.60;;;5.45;;
31424;SDS011;18054;51.572;7.372;2022-08-21T02:16:26;14.32;;;5.80;;
31424;SDS011;18054;51.572;7.372;2022-08-21T02:18:58;11.90;;;5.45;;
31424;SDS011;18054;51.572;7.372;2022-08-21T02:21:25;13.13;;;5.30;;
31424;SDS011;18054;51.572;7.372;2022-08-21T02:23:53;15.43;;;5.40;;
31424;SDS011;18054;51.572;7.372;2022-08-21T02:26:20;26.52;;;6.15;;
31424;SDS011;18054;51.572;7.372;2022-08-21T02:28:49;9.45;;;4.70;;
31424;SDS011;18054;51.572;7.372;2022-08-21T02:31:17;16.45;;;4.82;;
31424;SDS011;18054;51.572;7.372;2022-08-21T02:33:44;10.93;;;5.00;;
31424;SDS011;18054;51.572;7.372;2022-08-21T02:36:12;14.73;;;5.30;;
31424;SDS011;18054;51.572;7.372;2022-08-21T02:38:40;17.27;;;5.28;;
31424;SDS011;18054;51.572;7.372;2022-08-21T02:41:08;14.73;;;5.18;;
31424;SDS011;18054;51.572;7.372;2022-08-21T02:43:36;11.43;;;5.28;;
31424;SDS011;18054;51.572;7.372;2022-08-21T02:46:06;17.92;;;5.80;;
31424;SDS011;18054;51.572;7.372;2022-08-21T02:48:34;17.70;;;5.45;;
31424;SDS011;18054;51.572;7.372;2022-08-21T02:51:03;13.55;;;4.88;;
31424;SDS011;18054;51.572;7.372;2022-08-21T02:53:31;14.38;;;5.95;;
31424;SDS011;18054;51.572;7.372;2022-08-21T02:56:01;14.90;;;5.47;;
31424;SDS011;18054;51.572;7.372;2022-08-21T02:58:30;14.38;;;5.53;;
31424;SDS011;18054;51.572;7.372;2022-08-21T03:00:58;27.10;;;5.57;;
31424;SDS011;18054;51.572;7.372;2022-08-21T03:03:27;11.45;;;4.95;;
31424;SDS011;18054;51.572;7.372;2022-08-21T03:05:55;17.77;;;5.88;;
31424;SDS011;18054;51.572;7.372;2022-08-21T03:08:22;18.42;;;5.53;;
31424;SDS011;18054;51.572;7.372;2022-08-21T03:10:53;12.10;;;5.03;;
31424;SDS011;18054;51.572;7.372;2022-08-21T03:13:21;9.75;;;5.68;;
31424;SDS011;18054;51.572;7.372;2022-08-21T03:15:49;11.30;;;5.53;;
31424;SDS011;18054;51.572;7.372;2022-08-21T03:18:18;17.48;;;5.43;;
31424;SDS011;18054;51.572;7.372;2022-08-21T03:23:15;13.15;;;5.43;;
31424;SDS011;18054;51.572;7.372;2022-08-21T03:25:45;20.90;;;6.30;;
31424;SDS011;18054;51.572;7.372;2022-08-21T03:28:13;16.98;;;5.20;;
31424;SDS011;18054;51.572;7.372;2022-08-21T03:30:41;15.90;;;5.28;;
31424;SDS011;18054;51.572;7.372;2022-08-21T03:35:38;12.75;;;5.43;;
31424;SDS011;18054;51.572;7.372;2022-08-21T03:38:06;14.88;;;5.68;;
31424;SDS011;18054;51.572;7.372;2022-08-21T03:40:35;16.08;;;5.80;;
31424;SDS011;18054;51.572;7.372;2022-08-21T03:43:03;10.60;;;5.25;;
31424;SDS011;18054;51.572;7.372;2022-08-21T03:45:30;15.07;;;7.47;;
31424;SDS011;18054;51.572;7.372;2022-08-21T03:47:59;15.30;;;6.40;;
31424;SDS011;18054;51.572;7.372;2022-08-21T03:50:28;15.20;;;6.43;;
31424;SDS011;18054;51.572;7.372;2022-08-21T03:52:55;19.95;;;6.47;;
31424;SDS011;18054;51.572;7.372;2022-08-21T03:57:52;11.60;;;6.53;;
31424;SDS011;18054;51.572;7.372;2022-08-21T04:00:19;9.98;;;6.25;;
31424;SDS011;18054;51.572;7.372;2022-08-21T04:02:47;19.40;;;6.90;;
31424;SDS011;18054;51.572;7.372;2022-08-21T04:05:16;13.35;;;6.60;;
31424;SDS011;18054;51.572;7.372;2022-08-21T04:07:54;15.35;;;6.30;;
31424;SDS011;18054;51.572;7.372;2022-08-21T04:10:21;12.13;;;5.57;;
31424;SDS011;18054;51.572;7.372;2022-08-21T04:12:51;15.75;;;6.15;;
31424;SDS011;18054;51.572;7.372;2022-08-21T04:15:20;18.20;;;6.85;;
31424;SDS011;18054;51.572;7.372;2022-08-21T04:17:47;14.23;;;6.03;;
31424;SDS011;18054;51.572;7.372;2022-08-21T04:20:15;13.63;;;5.97;;
31424;SDS011;18054;51.572;7.372;2022-08-21T04:22:42;18.52;;;6.25;;
31424;SDS011;18054;51.572;7.372;2022-08-21T04:25:10;15.55;;;6.18;;
31424;SDS011;18054;51.572;7.372;2022-08-21T04:27:38;9.48;;;5.22;;
31424;SDS011;18054;51.572;7.372;2022-08-21T04:30:08;11.63;;;5.68;;
31424;SDS011;18054;51.572;7.372;2022-08-21T04:32:36;12.00;;;5.78;;
31424;SDS011;18054;51.572;7.372;2022-08-21T04:35:04;11.85;;;5.70;;
31424;SDS011;18054;51.572;7.372;2022-08-21T04:37:32;13.45;;;6.63;;
31424;SDS011;18054;51.572;7.372;2022-08-21T04:40:07;19.98;;;6.88;;
31424;SDS011;18054;51.572;7.372;2022-08-21T04:42:40;18.98;;;6.57;;
31424;SDS011;18054;51.572;7.372;2022-08-21T04:45:13;20.45;;;6.97;;
31424;SDS011;18054;51.572;7.372;2022-08-21T04:47:41;15.48;;;7.57;;
31424;SDS011;18054;51.572;7.372;2022-08-21T04:50:18;14.40;;;6.33;;
31424;SDS011;18054;51.572;7.372;2022-08-21T04:53:02;12.15;;;6.57;;
31424;SDS011;18054;51.572;7.372;2022-08-21T04:57:57;18.48;;;7.10;;
31424;SDS011;18054;51.572;7.372;2022-08-21T05:00:26;14.57;;;6.95;;
31424;SDS011;18054;51.572;7.372;2022-08-21T05:02:53;13.13;;;6.70;;
31424;SDS011;18054;51.572;7.372;2022-08-21T05:05:25;12.50;;;6.90;;
31424;SDS011;18054;51.572;7.372;2022-08-21T05:07:55;14.23;;;7.47;;
31424;SDS011;18054;51.572;7.372;2022-08-21T05:10:23;25.95;;;6.50;;
31424;SDS011;18054;51.572;7.372;2022-08-21T05:12:50;18.13;;;6.80;;
31424;SDS011;18054;51.572;7.372;2022-08-21T05:15:18;17.20;;;6.05;;
31424;SDS011;18054;51.572;7.372;2022-08-21T05:17:47;12.70;;;6.78;;
31424;SDS011;18054;51.572;7.372;2022-08-21T05:20:26;13.90;;;5.93;;
31424;SDS011;18054;51.572;7.372;2022-08-21T05:22:54;15.30;;;6.32;;
31424;SDS011;18054;51.572;7.372;2022-08-21T05:25:24;12.80;;;6.25;;
31424;SDS011;18054;51.572;7.372;2022-08-21T05:27:53;18.48;;;6.82;;
31424;SDS011;18054;51.572;7.372;2022-08-21T05:30:23;17.27;;;7.60;;
31424;SDS011;18054;51.572;7.372;2022-08-21T05:32:56;17.60;;;6.70;;
31424;SDS011;18054;51.572;7.372;2022-08-21T05:35:24;11.68;;;6.22;;
31424;SDS011;18054;51.572;7.372;2022-08-21T05:37:52;14.82;;;6.15;;
31424;SDS011;18054;51.572;7.372;2022-08-21T05:40:20;12.82;;;7.22;;
31424;SDS011;18054;51.572;7.372;2022-08-21T05:42:49;16.15;;;7.72;;
31424;SDS011;18054;51.572;7.372;2022-08-21T05:45:20;16.17;;;7.05;;
31424;SDS011;18054;51.572;7.372;2022-08-21T05:48:09;13.63;;;6.32;;
31424;SDS011;18054;51.572;7.372;2022-08-21T05:50:37;11.80;;;7.20;;
31424;SDS011;18054;51.572;7.372;2022-08-21T05:53:05;19.83;;;7.18;;
31424;SDS011;18054;51.572;7.372;2022-08-21T05:55:33;16.55;;;6.60;;
31424;SDS011;18054;51.572;7.372;2022-08-21T05:58:08;13.70;;;7.10;;
31424;SDS011;18054;51.572;7.372;2022-08-21T06:00:35;18.85;;;7.10;;
31424;SDS011;18054;51.572;7.372;2022-08-21T06:03:03;20.77;;;7.32;;
31424;SDS011;18054;51.572;7.372;2022-08-21T06:05:31;18.13;;;7.93;;
31424;SDS011;18054;51.572;7.372;2022-08-21T06:08:02;22.23;;;7.50;;
31424;SDS011;18054;51.572;7.372;2022-08-21T06:10:30;13.43;;;6.60;;
31424;SDS011;18054;51.572;7.372;2022-08-21T06:12:57;20.85;;;8.18;;
31424;SDS011;18054;51.572;7.372;2022-08-21T06:15:25;16.60;;;8.32;;
31424;SDS011;18054;51.572;7.372;2022-08-21T06:17:53;23.75;;;8.55;;
31424;SDS011;18054;51.572;7.372;2022-08-21T06:20:20;17.20;;;8.30;;
31424;SDS011;18054;51.572;7.372;2022-08-21T06:22:49;26.70;;;9.55;;
31424;SDS011;18054;51.572;7.372;2022-08-21T06:25:17;20.75;;;8.15;;
31424;SDS011;18054;51.572;7.372;2022-08-21T06:27:45;23.98;;;9.02;;
31424;SDS011;18054;51.572;7.372;2022-08-21T06:30:13;17.27;;;9.25;;
31424;SDS011;18054;51.572;7.372;2022-08-21T06:32:40;25.80;;;9.73;;
31424;SDS011;18054;51.572;7.372;2022-08-21T06:35:08;19.70;;;8.95;;
31424;SDS011;18054;51.572;7.372;2022-08-21T06:37:35;22.08;;;7.22;;
31424;SDS011;18054;51.572;7.372;2022-08-21T06:40:05;21.00;;;8.57;;
31424;SDS011;18054;51.572;7.372;2022-08-21T06:42:38;20.33;;;7.88;;
31424;SDS011;18054;51.572;7.372;2022-08-21T06:45:08;15.35;;;7.10;;
31424;SDS011;18054;51.572;7.372;2022-08-21T06:47:36;23.45;;;8.32;;
31424;SDS011;18054;51.572;7.372;2022-08-21T06:50:04;23.90;;;7.88;;
31424;SDS011;18054;51.572;7.372;2022-08-21T06:52:33;21.38;;;8.13;;
31424;SDS011;18054;51.572;7.372;2022-08-21T06:55:01;19.05;;;7.65;;
31424;SDS011;18054;51.572;7.372;2022-08-21T06:57:29;24.42;;;9.13;;
31424;SDS011;18054;51.572;7.372;2022-08-21T06:59:57;22.70;;;8.30;;
31424;SDS011;18054;51.572;7.372;2022-08-21T07:02:24;19.52;;;9.02;;
31424;SDS011;18054;51.572;7.372;2022-08-21T07:04:52;26.50;;;8.95;;
31424;SDS011;18054;51.572;7.372;2022-08-21T07:07:19;30.65;;;10.07;;
31424;SDS011;18054;51.572;7.372;2022-08-21T07:09:47;25.42;;;9.38;;
31424;SDS011;18054;51.572;7.372;2022-08-21T07:12:14;35.92;;;10.40;;
31424;SDS011;18054;51.572;7.372;2022-08-21T07:14:43;23.85;;;9.95;;
31424;SDS011;18054;51.572;7.372;2022-08-21T07:17:11;19.13;;;8.18;;
31424;SDS011;18054;51.572;7.372;2022-08-21T07:19:38;26.75;;;9.45;;
31424;SDS011;18054;51.572;7.372;2022-08-21T07:22:06;18.95;;;9.68;;
31424;SDS011;18054;51.572;7.372;2022-08-21T07:24:33;16.88;;;8.65;;
31424;SDS011;18054;51.572;7.372;2022-08-21T07:27:01;25.92;;;9.73;;
31424;SDS011;18054;51.572;7.372;2022-08-21T07:29:34;24.15;;;9.05;;
31424;SDS011;18054;51.572;7.372;2022-08-21T07:32:03;22.25;;;8.38;;
31424;SDS011;18054;51.572;7.372;2022-08-21T07:34:31;22.85;;;8.85;;
31424;SDS011;18054;51.572;7.372;2022-08-21T07:39:31;22.40;;;9.15;;
31424;SDS011;18054;51.572;7.372;2022-08-21T07:41:58;26.73;;;9.38;;
31424;SDS011;18054;51.572;7.372;2022-08-21T07:44:32;20.50;;;7.95;;
31424;SDS011;18054;51.572;7.372;2022-08-21T07:47:00;25.42;;;8.75;;
31424;SDS011;18054;51.572;7.372;2022-08-21T07:49:29;27.35;;;8.35;;
31424;SDS011;18054;51.572;7.372;2022-08-21T07:51:57;24.10;;;8.07;;
31424;SDS011;18054;51.572;7.372;2022-08-21T07:54:24;19.80;;;8.40;;
31424;SDS011;18054;51.572;7.372;2022-08-21T07:56:59;19.70;;;7.88;;
31424;SDS011;18054;51.572;7.372;2022-08-21T07:59:27;19.27;;;8.60;;
31424;SDS011;18054;51.572;7.372;2022-08-21T08:01:55;28.15;;;7.10;;
31424;SDS011;18054;51.572;7.372;2022-08-21T08:04:22;27.45;;;7.85;;
31424;SDS011;18054;51.572;7.372;2022-08-21T08:06:53;19.10;;;7.65;;
31424;SDS011;18054;51.572;7.372;2022-08-21T08:09:20;18.10;;;6.63;;
31424;SDS011;18054;51.572;7.372;2022-08-21T08:11:48;16.33;;;6.05;;
31424;SDS011;18054;51.572;7.372;2022-08-21T08:14:15;22.95;;;6.78;;
31424;SDS011;18054;51.572;7.372;2022-08-21T08:16:43;15.43;;;5.95;;
31424;SDS011;18054;51.572;7.372;2022-08-21T08:19:10;22.52;;;5.55;;
31424;SDS011;18054;51.572;7.372;2022-08-21T08:21:38;19.77;;;6.30;;
31424;SDS011;18054;51.572;7.372;2022-08-21T08:24:07;18.10;;;6.18;;
31424;SDS011;18054;51.572;7.372;2022-08-21T08:26:44;19.52;;;4.13;;
31424;SDS011;18054;51.572;7.372;2022-08-21T08:29:19;13.55;;;3.80;;
31424;SDS011;18054;51.572;7.372;2022-08-21T08:31:46;19.42;;;4.07;;
31424;SDS011;18054;51.572;7.372;2022-08-21T08:34:14;14.23;;;3.78;;
31424;SDS011;18054;51.572;7.372;2022-08-21T08:36:50;13.93;;;3.50;;
31424;SDS011;18054;51.572;7.372;2022-08-21T08:39:20;13.25;;;2.80;;
31424;SDS011;18054;51.572;7.372;2022-08-21T08:41:56;11.77;;;3.03;;
31424;SDS011;18054;51.572;7.372;2022-08-21T08:44:26;14.48;;;3.13;;
31424;SDS011;18054;51.572;7.372;2022-08-21T08:46:55;12.48;;;2.50;;
31424;SDS011;18054;51.572;7.372;2022-08-21T08:49:26;6.28;;;2.00;;
31424;SDS011;18054;51.572;7.372;2022-08-21T08:51:57;16.77;;;2.65;;
31424;SDS011;18054;51.572;7.372;2022-08-21T08:54:28;11.13;;;2.92;;
31424;SDS011;18054;51.572;7.372;2022-08-21T08:56:58;11.48;;;3.00;;
31424;SDS011;18054;51.572;7.372;2022-08-21T08:59:26;11.57;;;2.72;;
31424;SDS011;18054;51.572;7.372;2022-08-21T09:01:55;14.43;;;2.67;;
31424;SDS011;18054;51.572;7.372;2022-08-21T09:04:25;18.00;;;2.88;;
31424;SDS011;18054;51.572;7.372;2022-08-21T09:07:01;12.50;;;2.30;;
31424;SDS011;18054;51.572;7.372;2022-08-21T09:09:38;13.20;;;2.85;;
31424;SDS011;18054;51.572;7.372;2022-08-21T09:12:09;15.93;;;3.20;;
31424;SDS011;18054;51.572;7.372;2022-08-21T09:14:45;13.88;;;3.28;;
31424;SDS011;18054;51.572;7.372;2022-08-21T09:17:18;11.23;;;3.30;;
31424;SDS011;18054;51.572;7.372;2022-08-21T09:19:51;15.27;;;3.08;;
31424;SDS011;18054;51.572;7.372;2022-08-21T09:22:24;11.00;;;2.83;;
31424;SDS011;18054;51.572;7.372;2022-08-21T09:25:02;11.23;;;2.58;;
31424;SDS011;18054;51.572;7.372;2022-08-21T09:27:34;12.63;;;2.67;;
31424;SDS011;18054;51.572;7.372;2022-08-21T09:30:03;13.95;;;2.92;;
31424;SDS011;18054;51.572;7.372;2022-08-21T09:32:31;13.20;;;2.50;;
31424;SDS011;18054;51.572;7.372;2022-08-21T09:35:04;9.88;;;2.13;;
31424;SDS011;18054;51.572;7.372;2022-08-21T09:37:34;9.18;;;2.65;;
31424;SDS011;18054;51.572;7.372;2022-08-21T09:40:13;18.27;;;2.75;;
31424;SDS011;18054;51.572;7.372;2022-08-21T09:42:52;12.60;;;2.97;;
31424;SDS011;18054;51.572;7.372;2022-08-21T09:45:21;17.00;;;2.38;;
31424;SDS011;18054;51.572;7.372;2022-08-21T09:47:48;9.95;;;2.53;;
31424;SDS011;18054;51.572;7.372;2022-08-21T09:50:17;18.95;;;2.85;;
31424;SDS011;18054;51.572;7.372;2022-08-21T09:52:46;11.60;;;3.17;;
31424;SDS011;18054;51.572;7.372;2022-08-21T09:55:20;15.88;;;3.20;;
31424;SDS011;18054;51.572;7.372;2022-08-21T09:58:07;12.10;;;2.60;;
31424;SDS011;18054;51.572;7.372;2022-08-21T10:00:35;10.63;;;2.28;;
31424;SDS011;18054;51.572;7.372;2022-08-21T10:03:16;14.23;;;2.65;;
31424;SDS011;18054;51.572;7.372;2022-08-21T10:05:52;9.90;;;2.15;;
31424;SDS011;18054;51.572;7.372;2022-08-21T10:08:21;11.05;;;2.53;;
31424;SDS011;18054;51.572;7.372;2022-08-21T10:10:51;14.02;;;2.80;;
31424;SDS011;18054;51.572;7.372;2022-08-21T10:13:24;13.25;;;2.75;;
31424;SDS011;18054;51.572;7.372;2022-08-21T10:16:00;16.08;;;2.55;;
31424;SDS011;18054;51.572;7.372;2022-08-21T10:18:34;10.27;;;2.35;;
31424;SDS011;18054;51.572;7.372;2022-08-21T10:21:04;10.48;;;2.40;;
31424;SDS011;18054;51.572;7.372;2022-08-21T10:23:41;12.50;;;2.78;;
31424;SDS011;18054;51.572;7.372;2022-08-21T10:26:15;11.57;;;2.45;;
31424;SDS011;18054;51.572;7.372;2022-08-21T10:28:56;15.60;;;2.47;;
31424;SDS011;18054;51.572;7.372;2022-08-21T10:31:31;9.15;;;2.20;;
31424;SDS011;18054;51.572;7.372;2022-08-21T10:34:04;12.73;;;2.30;;
31424;SDS011;18054;51.572;7.372;2022-08-21T10:36:36;10.63;;;2.25;;
31424;SDS011;18054;51.572;7.372;2022-08-21T10:39:07;7.88;;;2.50;;
31424;SDS011;18054;51.572;7.372;2022-08-21T10:42:20;9.32;;;2.28;;
31424;SDS011;18054;51.572;7.372;2022-08-21T10:44:56;11.63;;;1.88;;
31424;SDS011;18054;51.572;7.372;2022-08-21T10:47:28;8.20;;;1.67;;
31424;SDS011;18054;51.572;7.372;2022-08-21T10:49:59;9.05;;;2.38;;
31424;SDS011;18054;51.572;7.372;2022-08-21T10:52:34;5.50;;;1.73;;
31424;SDS011;18054;51.572;7.372;2022-08-21T10:55:10;10.55;;;2.13;;
31424;SDS011;18054;51.572;7.372;2022-08-21T10:57:42;9.35;;;1.90;;
31424;SDS011;18054;51.572;7.372;2022-08-21T11:00:13;8.95;;;2.20;;
31424;SDS011;18054;51.572;7.372;2022-08-21T11:02:42;8.48;;;1.60;;
31424;SDS011;18054;51.572;7.372;2022-08-21T11:05:11;10.27;;;2.03;;
31424;SDS011;18054;51.572;7.372;2022-08-21T11:07:44;6.00;;;1.73;;
31424;SDS011;18054;51.572;7.372;2022-08-21T11:10:16;7.57;;;2.00;;
31424;SDS011;18054;51.572;7.372;2022-08-21T11:12:47;10.25;;;2.00;;
31424;SDS011;18054;51.572;7.372;2022-08-21T11:15:23;7.40;;;1.75;;
31424;SDS011;18054;51.572;7.372;2022-08-21T11:17:57;10.13;;;1.42;;
31424;SDS011;18054;51.572;7.372;2022-08-21T11:20:28;7.72;;;1.92;;
31424;SDS011;18054;51.572;7.372;2022-08-21T11:22:56;8.32;;;1.55;;
31424;SDS011;18054;51.572;7.372;2022-08-21T11:25:29;5.43;;;1.50;;
31424;SDS011;18054;51.572;7.372;2022-08-21T11:28:05;6.75;;;1.50;;
31424;SDS011;18054;51.572;7.372;2022-08-21T11:30:41;6.05;;;1.92;;
31424;SDS011;18054;51.572;7.372;2022-08-21T11:33:14;4.78;;;1.17;;
31424;SDS011;18054;51.572;7.372;2022-08-21T11:35:45;6.85;;;1.38;;
31424;SDS011;18054;51.572;7.372;2022-08-21T11:38:22;6.55;;;1.67;;
31424;SDS011;18054;51.572;7.372;2022-08-21T11:40:57;6.25;;;1.20;;
31424;SDS011;18054;51.572;7.372;2022-08-21T11:43:31;6.53;;;1.52;;
31424;SDS011;18054;51.572;7.372;2022-08-21T11:46:03;9.02;;;1.20;;
31424;SDS011;18054;51.572;7.372;2022-08-21T11:48:36;4.38;;;1.27;;
31424;SDS011;18054;51.572;7.372;2022-08-21T11:51:09;6.53;;;1.35;;
31424;SDS011;18054;51.572;7.372;2022-08-21T11:53:38;5.20;;;1.42;;
31424;SDS011;18054;51.572;7.372;2022-08-21T11:56:07;7.13;;;1.38;;
31424;SDS011;18054;51.572;7.372;2022-08-21T11:58:38;3.85;;;0.80;;
31424;SDS011;18054;51.572;7.372;2022-08-21T12:01:07;3.90;;;1.05;;
31424;SDS011;18054;51.572;7.372;2022-08-21T12:03:36;4.45;;;1.10;;
31424;SDS011;18054;51.572;7.372;2022-08-21T12:06:09;7.03;;;1.63;;
31424;SDS011;18054;51.572;7.372;2022-08-21T12:08:37;7.72;;;1.35;;
31424;SDS011;18054;51.572;7.372;2022-08-21T12:11:06;4.65;;;1.10;;
31424;SDS011;18054;51.572;7.372;2022-08-21T12:13:35;5.85;;;1.40;;
31424;SDS011;18054;51.572;7.372;2022-08-21T12:16:10;4.00;;;0.95;;
31424;SDS011;18054;51.572;7.372;2022-08-21T12:18:38;4.88;;;1.05;;
31424;SDS011;18054;51.572;7.372;2022-08-21T12:21:17;8.65;;;1.65;;
31424;SDS011;18054;51.572;7.372;2022-08-21T12:23:47;6.45;;;1.40;;
31424;SDS011;18054;51.572;7.372;2022-08-21T12:26:20;6.53;;;1.10;;
31424;SDS011;18054;51.572;7.372;2022-08-21T12:28:49;3.88;;;1.10;;
31424;SDS011;18054;51.572;7.372;2022-08-21T12:31:23;4.15;;;1.23;;
31424;SDS011;18054;51.572;7.372;2022-08-21T12:33:51;4.40;;;0.95;;
31424;SDS011;18054;51.572;7.372;2022-08-21T12:36:21;3.97;;;1.13;;
31424;SDS011;18054;51.572;7.372;2022-08-21T12:38:52;3.65;;;1.23;;
31424;SDS011;18054;51.572;7.372;2022-08-21T12:41:22;7.85;;;1.70;;
31424;SDS011;18054;51.572;7.372;2022-08-21T12:43:53;4.03;;;1.08;;
31424;SDS011;18054;51.572;7.372;2022-08-21T12:46:25;6.22;;;1.10;;
31424;SDS011;18054;51.572;7.372;2022-08-21T12:48:56;8.27;;;1.45;;
31424;SDS011;18054;51.572;7.372;2022-08-21T12:51:26;4.32;;;1.17;;
31424;SDS011;18054;51.572;7.372;2022-08-21T12:53:56;4.90;;;1.30;;
31424;SDS011;18054;51.572;7.372;2022-08-21T12:56:25;3.85;;;1.05;;
31424;SDS011;18054;51.572;7.372;2022-08-21T12:58:54;6.03;;;1.55;;
31424;SDS011;18054;51.572;7.372;2022-08-21T13:01:24;5.43;;;1.27;;
31424;SDS011;18054;51.572;7.372;2022-08-21T13:03:55;12.98;;;2.08;;
31424;SDS011;18054;51.572;7.372;2022-08-21T13:08:58;6.18;;;1.73;;
31424;SDS011;18054;51.572;7.372;2022-08-21T13:11:31;6.97;;;1.52;;
31424;SDS011;18054;51.572;7.372;2022-08-21T13:14:00;5.13;;;1.30;;
31424;SDS011;18054;51.572;7.372;2022-08-21T13:16:30;5.93;;;1.67;;
31424;SDS011;18054;51.572;7.372;2022-08-21T13:19:03;6.05;;;1.60;;
31424;SDS011;18054;51.572;7.372;2022-08-21T13:21:32;8.10;;;1.50;;
31424;SDS011;18054;51.572;7.372;2022-08-21T13:24:13;5.20;;;1.30;;
31424;SDS011;18054;51.572;7.372;2022-08-21T13:27:02;5.07;;;1.35;;
31424;SDS011;18054;51.572;7.372;2022-08-21T13:29:31;4.32;;;1.10;;
31424;SDS011;18054;51.572;7.372;2022-08-21T13:32:06;7.32;;;1.38;;
31424;SDS011;18054;51.572;7.372;2022-08-21T13:34:36;10.45;;;1.60;;
31424;SDS011;18054;51.572;7.372;2022-08-21T13:37:04;4.28;;;1.08;;
31424;SDS011;18054;51.572;7.372;2022-08-21T13:39:32;5.18;;;1.30;;
31424;SDS011;18054;51.572;7.372;2022-08-21T13:42:00;7.53;;;1.40;;
31424;SDS011;18054;51.572;7.372;2022-08-21T13:44:32;6.47;;;1.40;;
31424;SDS011;18054;51.572;7.372;2022-08-21T13:47:00;9.02;;;1.38;;
31424;SDS011;18054;51.572;7.372;2022-08-21T13:49:30;4.13;;;1.10;;
31424;SDS011;18054;51.572;7.372;2022-08-21T13:52:00;7.55;;;0.90;;
31424;SDS011;18054;51.572;7.372;2022-08-21T13:54:29;2.80;;;0.90;;
31424;SDS011;18054;51.572;7.372;2022-08-21T13:57:00;4.65;;;1.38;;
31424;SDS011;18054;51.572;7.372;2022-08-21T13:59:28;6.35;;;1.65;;
31424;SDS011;18054;51.572;7.372;2022-08-21T14:01:57;4.88;;;1.45;;
31424;SDS011;18054;51.572;7.372;2022-08-21T14:04:29;4.72;;;0.90;;
31424;SDS011;18054;51.572;7.372;2022-08-21T14:07:02;2.35;;;0.68;;
31424;SDS011;18054;51.572;7.372;2022-08-21T14:09:30;4.60;;;1.30;;
31424;SDS011;18054;51.572;7.372;2022-08-21T14:11:59;4.78;;;1.10;;
31424;SDS011;18054;51.572;7.372;2022-08-21T14:14:29;7.43;;;1.15;;
31424;SDS011;18054;51.572;7.372;2022-08-21T14:16:58;12.63;;;1.25;;
31424;SDS011;18054;51.572;7.372;2022-08-21T14:19:46;4.05;;;1.08;;
31424;SDS011;18054;51.572;7.372;2022-08-21T14:22:28;5.70;;;1.15;;
31424;SDS011;18054;51.572;7.372;2022-08-21T14:25:00;4.05;;;1.25;;
31424;SDS011;18054;51.572;7.372;2022-08-21T14:27:28;3.17;;;1.15;;
31424;SDS011;18054;51.572;7.372;2022-08-21T14:30:00;4.80;;;1.40;;
31424;SDS011;18054;51.572;7.372;2022-08-21T14:32:28;2.40;;;0.73;;
31424;SDS011;18054;51.572;7.372;2022-08-21T14:34:58;7.22;;;1.15;;
31424;SDS011;18054;51.572;7.372;2022-08-21T14:37:25;7.80;;;1.23;;
31424;SDS011;18054;51.572;7.372;2022-08-21T14:39:54;3.70;;;0.90;;
31424;SDS011;18054;51.572;7.372;2022-08-21T14:42:22;3.60;;;1.13;;
31424;SDS011;18054;51.572;7.372;2022-08-21T14:44:50;6.03;;;1.40;;
31424;SDS011;18054;51.572;7.372;2022-08-21T14:47:17;3.67;;;1.10;;
31424;SDS011;18054;51.572;7.372;2022-08-21T14:52:12;3.03;;;0.90;;
31424;SDS011;18054;51.572;7.372;2022-08-21T14:59:36;5.78;;;1.65;;
31424;SDS011;18054;51.572;7.372;2022-08-21T15:02:04;5.25;;;1.10;;
31424;SDS011;18054;51.572;7.372;2022-08-21T15:04:32;7.57;;;1.67;;
31424;SDS011;18054;51.572;7.372;2022-08-21T15:06:59;3.47;;;0.98;;
31424;SDS011;18054;51.572;7.372;2022-08-21T15:09:27;6.10;;;1.20;;
31424;SDS011;18054;51.572;7.372;2022-08-21T15:11:55;5.57;;;1.05;;
31424;SDS011;18054;51.572;7.372;2022-08-21T15:14:24;6.65;;;1.20;;
31424;SDS011;18054;51.572;7.372;2022-08-21T15:16:53;5.43;;;1.10;;